Terminal Aerodrome Forecast
Issued by NWS Twin Cities, MN

Home | Current Version | Previous Version | Text Only | Print | Product List | Glossary Off
Versions: 1 2 3 4 5 6 7 8 9 10 11 12 13 14 15 16 17 18 19 20 21 22 23 24 25 26 27 28 29 30

000
FTUS43 KMPX 192342 CCB
TAFMSP
TAF COR
KMSP 192342Z 2000/2106 31014KT P6SM -RA BKN019 OVC025
     FM200300 31014G22KT P6SM BKN030 BKN070
     FM201100 31018G28KT P6SM BKN035
     FM202000 30023G33KT P6SM BKN035 OVC050=

USA.gov is the U.S. government's official web portal to all federal, state and local government web resources and services.